Shiseimaru — JD2936 — position and weather

sailwx.info

Track history (hours):
 
Tides and Currents Weather Stations Pressure Air Temp Water Temp Dewpoint Dewpoint Depression Visibility Wind Speed Wind Dir Waves Ship Positions

Shiseimaru

Last reported at 2017-Dec-11 16:59 UTC. Time now 2017-Dec-13 09:25 UTC.
Position N 33°22' E 131°42'.

Length 73 m; draft 4.1 m.

Type: Cargo ship. MMSI: 431001029.

Date/timePositionNaut miles runAvg speedWind from/ knotsBaromVisibWave heightAir tempDewpointWater temp
2017-Dec-11 16:59N 33°22' E 131°42'0 0.0
2017-Dec-11 16:29N 33°22' E 131°42'0 0.0
2017-Dec-11 15:41N 33°22' E 131°42'0 0.0
2017-Dec-11 15:29N 33°22' E 131°42'0 0.0
2017-Dec-11 14:53N 33°22' E 131°42'0 0.0
2017-Dec-11 14:29N 33°22' E 131°42'0 0.1
2017-Dec-11 13:59N 33°22' E 131°42'0 0.1
2017-Dec-11 13:29N 33°22' E 131°42'0 0.1
2017-Dec-11 12:59N 33°22' E 131°42'0 0.1
2017-Dec-11 12:29N 33°22' E 131°42'0 0.0
2017-Dec-11 11:41N 33°22' E 131°42'0 0.0
2017-Dec-11 10:23N 33°22' E 131°42'0 0.0
2017-Dec-11 09:53N 33°22' E 131°42'0 0.0
2017-Dec-11 09:29N 33°22' E 131°42'0 0.0
2017-Dec-11 08:59N 33°22' E 131°42'0 0.0
2017-Dec-11 08:30N 33°22' E 131°42'0 0.0
2017-Dec-11 07:48N 33°22' E 131°42'0 0.0
2017-Dec-11 07:30N 33°22' E 131°42'0 0.0
2017-Dec-11 07:00N 33°22' E 131°42'0 0.0
2017-Dec-11 06:30N 33°22' E 131°42'0 0.0
2017-Dec-11 06:00N 33°22' E 131°42'0 0.0
2017-Dec-11 05:30N 33°22' E 131°42'0 0.0
2017-Dec-11 04:56N 33°22' E 131°42'0 0.0
2017-Dec-11 04:20N 33°22' E 131°42'0 0.0
2017-Dec-11 03:50N 33°22' E 131°42'0 0.0
2017-Dec-11 03:26N 33°22' E 131°42'0 0.0
2017-Dec-11 02:56N 33°22' E 131°42'0 0.0
2017-Dec-11 02:20N 33°22' E 131°42'0 0.0
2017-Dec-11 01:56N 33°22' E 131°42'0 0.0
2017-Dec-11 01:26N 33°22' E 131°42'0 0.1
2017-Dec-11 00:44N 33°22' E 131°42'0 0.2
2017-Dec-11 00:26N 33°22' E 131°42'0 0.2
2017-Dec-10 23:57N 33°22' E 131°42'5 8.7
2017-Dec-10 23:21N 33°17' E 131°43'1 2.3
2017-Dec-10 23:00N 33°16' E 131°43'0 0.0
2017-Dec-10 22:31N 33°16' E 131°43'0 0.0
2017-Dec-10 22:01N 33°16' E 131°43'0 0.0
2017-Dec-10 21:30N 33°16' E 131°43'0 0.0
2017-Dec-10 21:00N 33°16' E 131°43'0 0.0
2017-Dec-10 20:30N 33°16' E 131°43'0 0.0
2017-Dec-10 20:00N 33°16' E 131°43'0 0.0
2017-Dec-10 19:30N 33°16' E 131°43'3 5.3
2017-Dec-10 18:59N 33°18' E 131°45'611.0
2017-Dec-10 18:26N 33°22' E 131°51'510.9
2017-Dec-10 17:58N 33°25' E 131°56'2210.2
2017-Dec-10 15:47N 33°39' E 132°17'310.0
2017-Dec-10 15:28N 33°41' E 132°20'510.3
2017-Dec-10 14:58N 33°44' E 132°25'510.6
2017-Dec-10 14:30N 33°48' E 132°29'511.0
2017-Dec-10 14:00N 33°51' E 132°34'611.2
2017-Dec-10 13:26N 33°56' E 132°40'511.3
2017-Dec-10 12:59N 33°59' E 132°44'85 7.6
2017-Dec-10 01:44N 34°25' E 134°22'311.4
2017-Dec-10 01:30N 34°26' E 134°25'611.4
2017-Dec-10 01:00N 34°28' E 134°32'511.1
2017-Dec-10 00:31N 34°30' E 134°38'611.0
2017-Dec-10 00:01N 34°32' E 134°44'510.6
2017-Dec-09 23:31N 34°34' E 134°50'5 9.8
2017-Dec-09 23:01N 34°36' E 134°56'5 9.1
2017-Dec-09 22:31N 34°37' E 135°01'4 8.6
2017-Dec-09 22:01N 34°35' E 135°05'510.9
2017-Dec-09 21:31N 34°30' E 135°03'510.9
2017-Dec-09 21:01N 34°24' E 135°02'611.1
2017-Dec-09 20:30N 34°19' E 134°60'510.0
2017-Dec-09 20:01N 34°14' E 134°60'510.9
2017-Dec-09 19:30N 34°09' E 134°60'611.1
2017-Dec-09 19:01N 34°03' E 135°00'611.2
2017-Dec-09 18:27N 33°57' E 135°00'120 8.3
2017-Dec-09 03:57N 34°43' E 137°14'3 0.1
2017-Dec-08 05:05N 34°42' E 137°11'310.5
2017-Dec-08 04:49N 34°41' E 137°07'6 9.9
2017-Dec-08 04:11N 34°39' E 137°01'2 9.8
2017-Dec-08 03:59N 34°38' E 136°58'11 7.8
2017-Dec-08 02:38N 34°33' E 137°10'110.2
2017-Dec-08 02:30N 34°32' E 137°11'6710.0
2017-Dec-07 19:50N 34°34' E 138°32'18 8.4
2017-Dec-07 17:41N 34°35' E 138°54'1 7.5
2017-Dec-07 17:30N 34°36' E 138°56'6 8.8
2017-Dec-07 16:47N 34°39' E 139°02'410.3
2017-Dec-07 16:26N 34°42' E 139°05'5 9.8
2017-Dec-07 15:54N 34°46' E 139°10'11 8.6
2017-Dec-07 14:36N 34°53' E 139°20'3 8.7
2017-Dec-07 14:13N 34°54' E 139°24'2 8.8
2017-Dec-07 14:00N 34°55' E 139°26'4 8.8
2017-Dec-07 13:30N 34°58' E 139°30'4 9.0
2017-Dec-07 13:01N 35°01' E 139°34'5 9.5
2017-Dec-07 12:30N 35°04' E 139°38'510.2
2017-Dec-07 12:00N 35°07' E 139°43'510.6
2017-Dec-07 11:30N 35°12' E 139°46'510.5
2017-Dec-07 11:00N 35°17' E 139°45'510.7
2017-Dec-07 10:30N 35°22' E 139°42'510.2
2017-Dec-07 10:00N 35°27' E 139°45'4 8.1
2017-Dec-07 09:30N 35°30' E 139°46'1 2.3
2017-Dec-07 09:00N 35°31' E 139°45'0 0.0
2017-Dec-07 08:23N 35°31' E 139°45'0 0.0
2017-Dec-07 07:47N 35°31' E 139°45'0 0.0
2017-Dec-07 07:29N 35°31' E 139°45'0 0.0
2017-Dec-07 06:53N 35°31' E 139°45'0 0.1
2017-Dec-07 06:29N 35°31' E 139°45'0 0.0
2017-Dec-07 05:29N 35°31' E 139°45'0 0.0
2017-Dec-07 04:59N 35°31' E 139°45'0 0.0
2017-Dec-07 04:14N 35°31' E 139°45'0 0.0
2017-Dec-07 03:50N 35°31' E 139°45'0 0.0
2017-Dec-07 03:29N 35°31' E 139°45'0 0.1
2017-Dec-07 02:50N 35°31' E 139°45'0 0.1
2017-Dec-07 02:23N 35°31' E 139°45'0 0.1
2017-Dec-07 01:50N 35°31' E 139°45'0 0.1
2017-Dec-07 01:23N 35°31' E 139°45'0 0.0
2017-Dec-07 00:59N 35°31' E 139°45'0 0.0
2017-Dec-07 00:29N 35°31' E 139°45'0 0.0
2017-Dec-06 23:53N 35°31' E 139°45'0 0.0
2017-Dec-06 23:29N 35°31' E 139°45'0 0.0
2017-Dec-06 22:59N 35°31' E 139°45'0 0.0
2017-Dec-06 22:29N 35°31' E 139°45'0 0.0
2017-Dec-06 21:59N 35°31' E 139°45'0 0.0
2017-Dec-06 21:11N 35°31' E 139°45'0 0.0
2017-Dec-06 20:56N 35°31' E 139°45'  
2017-Dec-04 10:30N 35°29' E 139°39'0 0.0
2017-Dec-04 10:00N 35°29' E 139°39'0 0.0
2017-Dec-04 09:30N 35°29' E 139°39'0 0.0
2017-Dec-04 09:00N 35°29' E 139°39'0 0.0
2017-Dec-04 08:31N 35°29' E 139°39'0 0.0
2017-Dec-04 08:00N 35°29' E 139°39'0 0.0
2017-Dec-04 07:30N 35°29' E 139°39'0 0.0
2017-Dec-04 07:00N 35°29' E 139°39'0 0.0
2017-Dec-04 06:30N 35°29' E 139°39'0 0.0
2017-Dec-04 06:00N 35°29' E 139°39'0 0.0
2017-Dec-04 05:31N 35°29' E 139°39'0 0.0
2017-Dec-04 05:00N 35°29' E 139°39'0 0.0
2017-Dec-04 04:31N 35°29' E 139°39'0 0.0
2017-Dec-04 04:00N 35°29' E 139°39'0 0.0
2017-Dec-04 03:31N 35°29' E 139°39'0 0.0
2017-Dec-04 03:00N 35°29' E 139°39'0 0.0
2017-Dec-04 02:30N 35°29' E 139°39'0 0.0
2017-Dec-04 02:00N 35°29' E 139°39'0 0.0
2017-Dec-04 01:30N 35°29' E 139°39'0 0.0
2017-Dec-04 01:00N 35°29' E 139°39'0 0.0
2017-Dec-04 00:30N 35°29' E 139°39'0 0.0
2017-Dec-04 00:01N 35°29' E 139°39'0 0.0
2017-Dec-03 23:30N 35°29' E 139°39'0 0.1
2017-Dec-03 23:01N 35°29' E 139°39'3 6.5
2017-Dec-03 22:30N 35°26' E 139°42'4 7.8
2017-Dec-03 22:00N 35°23' E 139°44'0 0.6
2017-Dec-03 21:28N 35°23' E 139°44'0 0.0
2017-Dec-03 20:58N 35°23' E 139°44'0 0.0
2017-Dec-03 20:28N 35°23' E 139°44'0 0.1
2017-Dec-03 19:59N 35°23' E 139°44'0 0.0
2017-Dec-03 19:29N 35°23' E 139°44'0 0.0
2017-Dec-03 18:59N 35°23' E 139°44'0 0.0
2017-Dec-03 18:29N 35°23' E 139°44'0 0.1
2017-Dec-03 17:59N 35°23' E 139°44'0 0.0
2017-Dec-03 17:29N 35°23' E 139°44'0 0.2
2017-Dec-03 16:59N 35°23' E 139°44'0 0.0
2017-Dec-03 16:29N 35°23' E 139°44'0 0.0
2017-Dec-03 15:59N 35°23' E 139°44'0 0.0
2017-Dec-03 15:29N 35°23' E 139°44'0 0.0
2017-Dec-03 14:59N 35°23' E 139°44'0 0.1
2017-Dec-03 14:29N 35°23' E 139°44'0 0.0
2017-Dec-03 13:59N 35°23' E 139°44'0 0.0
2017-Dec-03 13:29N 35°23' E 139°44'0 0.0
2017-Dec-03 12:59N 35°23' E 139°44'2 4.7
2017-Dec-03 12:30N 35°21' E 139°43'5 9.5
2017-Dec-03 12:00N 35°16' E 139°46'5 9.0
2017-Dec-03 11:30N 35°12' E 139°47'510.4
2017-Dec-03 11:00N 35°07' E 139°45'510.8
2017-Dec-03 10:30N 35°02' E 139°42'611.8
2017-Dec-03 09:58N 34°59' E 139°35'612.5
2017-Dec-03 09:28N 34°55' E 139°29'512.0
2017-Dec-03 09:00N 34°52' E 139°24'611.8
2017-Dec-03 08:30N 34°48' E 139°18'611.9
2017-Dec-03 08:00N 34°45' E 139°12'611.4
2017-Dec-03 07:30N 34°41' E 139°07'510.1
2017-Dec-03 07:00N 34°38' E 139°02'5 9.7
2017-Dec-03 06:30N 34°36' E 138°57'611.0
2017-Dec-03 06:00N 34°35' E 138°50'611.8
2017-Dec-03 05:30N 34°34' E 138°43'611.7
2017-Dec-03 04:58N 34°33' E 138°36'611.4
2017-Dec-03 04:28N 34°32' E 138°29'711.3
2017-Dec-03 03:51N 34°31' E 138°20'411.1
2017-Dec-03 03:29N 34°31' E 138°15'319 9.9
2017-Dec-01 19:16N 33°13' E 132°03'3 9.8
2017-Dec-01 18:56N 33°16' E 132°01'5 9.5
2017-Dec-01 18:22N 33°21' E 131°58'410.0
2017-Dec-01 17:59N 33°24' E 131°56'510.7
2017-Dec-01 17:29N 33°29' E 131°52'511.2
2017-Dec-01 17:00N 33°34' E 131°49'  
Track history (hours):
 
Tides and Currents Weather Stations Pressure Air Temp Water Temp Dewpoint Dewpoint Depression Visibility Wind Speed Wind Dir Waves Ship Positions

Shiseimaru

Last reported at 2017-Dec-11 16:59 UTC. Time now 2017-Dec-13 09:25 UTC.
Position N 33°22' E 131°42'.

Length 73 m; draft 4.1 m.

Type: Cargo ship. MMSI: 431001029.

Date/timePositionNaut miles runAvg speedWind from/ knotsBaromVisibWave heightAir tempDewpointWater temp
2017-Dec-11 16:59N 33°22' E 131°42'0 0.0
2017-Dec-11 16:29N 33°22' E 131°42'0 0.0
2017-Dec-11 15:41N 33°22' E 131°42'0 0.0
2017-Dec-11 15:29N 33°22' E 131°42'0 0.0
2017-Dec-11 14:53N 33°22' E 131°42'0 0.0
2017-Dec-11 14:29N 33°22' E 131°42'0 0.1
2017-Dec-11 13:59N 33°22' E 131°42'0 0.1
2017-Dec-11 13:29N 33°22' E 131°42'0 0.1
2017-Dec-11 12:59N 33°22' E 131°42'0 0.1
2017-Dec-11 12:29N 33°22' E 131°42'0 0.0
2017-Dec-11 11:41N 33°22' E 131°42'0 0.0
2017-Dec-11 10:23N 33°22' E 131°42'0 0.0
2017-Dec-11 09:53N 33°22' E 131°42'0 0.0
2017-Dec-11 09:29N 33°22' E 131°42'0 0.0
2017-Dec-11 08:59N 33°22' E 131°42'0 0.0
2017-Dec-11 08:30N 33°22' E 131°42'0 0.0
2017-Dec-11 07:48N 33°22' E 131°42'0 0.0
2017-Dec-11 07:30N 33°22' E 131°42'0 0.0
2017-Dec-11 07:00N 33°22' E 131°42'0 0.0
2017-Dec-11 06:30N 33°22' E 131°42'0 0.0
2017-Dec-11 06:00N 33°22' E 131°42'0 0.0
2017-Dec-11 05:30N 33°22' E 131°42'0 0.0
2017-Dec-11 04:56N 33°22' E 131°42'0 0.0
2017-Dec-11 04:20N 33°22' E 131°42'0 0.0
2017-Dec-11 03:50N 33°22' E 131°42'0 0.0
2017-Dec-11 03:26N 33°22' E 131°42'0 0.0
2017-Dec-11 02:56N 33°22' E 131°42'0 0.0
2017-Dec-11 02:20N 33°22' E 131°42'0 0.0
2017-Dec-11 01:56N 33°22' E 131°42'0 0.0
2017-Dec-11 01:26N 33°22' E 131°42'0 0.1
2017-Dec-11 00:44N 33°22' E 131°42'0 0.2
2017-Dec-11 00:26N 33°22' E 131°42'0 0.2
2017-Dec-10 23:57N 33°22' E 131°42'5 8.7
2017-Dec-10 23:21N 33°17' E 131°43'1 2.3
2017-Dec-10 23:00N 33°16' E 131°43'0 0.0
2017-Dec-10 22:31N 33°16' E 131°43'0 0.0
2017-Dec-10 22:01N 33°16' E 131°43'0 0.0
2017-Dec-10 21:30N 33°16' E 131°43'0 0.0
2017-Dec-10 21:00N 33°16' E 131°43'0 0.0
2017-Dec-10 20:30N 33°16' E 131°43'0 0.0
2017-Dec-10 20:00N 33°16' E 131°43'0 0.0
2017-Dec-10 19:30N 33°16' E 131°43'3 5.3
2017-Dec-10 18:59N 33°18' E 131°45'611.0
2017-Dec-10 18:26N 33°22' E 131°51'510.9
2017-Dec-10 17:58N 33°25' E 131°56'2210.2
2017-Dec-10 15:47N 33°39' E 132°17'310.0
2017-Dec-10 15:28N 33°41' E 132°20'510.3
2017-Dec-10 14:58N 33°44' E 132°25'510.6
2017-Dec-10 14:30N 33°48' E 132°29'511.0
2017-Dec-10 14:00N 33°51' E 132°34'611.2
2017-Dec-10 13:26N 33°56' E 132°40'511.3
2017-Dec-10 12:59N 33°59' E 132°44'85 7.6
2017-Dec-10 01:44N 34°25' E 134°22'311.4
2017-Dec-10 01:30N 34°26' E 134°25'611.4
2017-Dec-10 01:00N 34°28' E 134°32'511.1
2017-Dec-10 00:31N 34°30' E 134°38'611.0
2017-Dec-10 00:01N 34°32' E 134°44'510.6
2017-Dec-09 23:31N 34°34' E 134°50'5 9.8
2017-Dec-09 23:01N 34°36' E 134°56'5 9.1
2017-Dec-09 22:31N 34°37' E 135°01'4 8.6
2017-Dec-09 22:01N 34°35' E 135°05'510.9
2017-Dec-09 21:31N 34°30' E 135°03'510.9
2017-Dec-09 21:01N 34°24' E 135°02'611.1
2017-Dec-09 20:30N 34°19' E 134°60'510.0
2017-Dec-09 20:01N 34°14' E 134°60'510.9
2017-Dec-09 19:30N 34°09' E 134°60'611.1
2017-Dec-09 19:01N 34°03' E 135°00'611.2
2017-Dec-09 18:27N 33°57' E 135°00'120 8.3
2017-Dec-09 03:57N 34°43' E 137°14'3 0.1
2017-Dec-08 05:05N 34°42' E 137°11'310.5
2017-Dec-08 04:49N 34°41' E 137°07'6 9.9
2017-Dec-08 04:11N 34°39' E 137°01'2 9.8
2017-Dec-08 03:59N 34°38' E 136°58'11 7.8
2017-Dec-08 02:38N 34°33' E 137°10'110.2
2017-Dec-08 02:30N 34°32' E 137°11'6710.0
2017-Dec-07 19:50N 34°34' E 138°32'18 8.4
2017-Dec-07 17:41N 34°35' E 138°54'1 7.5
2017-Dec-07 17:30N 34°36' E 138°56'6 8.8
2017-Dec-07 16:47N 34°39' E 139°02'410.3
2017-Dec-07 16:26N 34°42' E 139°05'5 9.8
2017-Dec-07 15:54N 34°46' E 139°10'11 8.6
2017-Dec-07 14:36N 34°53' E 139°20'3 8.7
2017-Dec-07 14:13N 34°54' E 139°24'2 8.8
2017-Dec-07 14:00N 34°55' E 139°26'4 8.8
2017-Dec-07 13:30N 34°58' E 139°30'4 9.0
2017-Dec-07 13:01N 35°01' E 139°34'5 9.5
2017-Dec-07 12:30N 35°04' E 139°38'510.2
2017-Dec-07 12:00N 35°07' E 139°43'510.6
2017-Dec-07 11:30N 35°12' E 139°46'510.5
2017-Dec-07 11:00N 35°17' E 139°45'510.7
2017-Dec-07 10:30N 35°22' E 139°42'510.2
2017-Dec-07 10:00N 35°27' E 139°45'4 8.1
2017-Dec-07 09:30N 35°30' E 139°46'1 2.3
2017-Dec-07 09:00N 35°31' E 139°45'0 0.0
2017-Dec-07 08:23N 35°31' E 139°45'0 0.0
2017-Dec-07 07:47N 35°31' E 139°45'0 0.0
2017-Dec-07 07:29N 35°31' E 139°45'0 0.0
2017-Dec-07 06:53N 35°31' E 139°45'0 0.1
2017-Dec-07 06:29N 35°31' E 139°45'0 0.0
2017-Dec-07 05:29N 35°31' E 139°45'0 0.0
2017-Dec-07 04:59N 35°31' E 139°45'0 0.0
2017-Dec-07 04:14N 35°31' E 139°45'0 0.0
2017-Dec-07 03:50N 35°31' E 139°45'0 0.0
2017-Dec-07 03:29N 35°31' E 139°45'0 0.1
2017-Dec-07 02:50N 35°31' E 139°45'0 0.1
2017-Dec-07 02:23N 35°31' E 139°45'0 0.1
2017-Dec-07 01:50N 35°31' E 139°45'0 0.1
2017-Dec-07 01:23N 35°31' E 139°45'0 0.0
2017-Dec-07 00:59N 35°31' E 139°45'0 0.0
2017-Dec-07 00:29N 35°31' E 139°45'0 0.0
2017-Dec-06 23:53N 35°31' E 139°45'0 0.0
2017-Dec-06 23:29N 35°31' E 139°45'0 0.0
2017-Dec-06 22:59N 35°31' E 139°45'0 0.0
2017-Dec-06 22:29N 35°31' E 139°45'0 0.0
2017-Dec-06 21:59N 35°31' E 139°45'0 0.0
2017-Dec-06 21:11N 35°31' E 139°45'0 0.0
2017-Dec-06 20:56N 35°31' E 139°45'  
2017-Dec-04 10:30N 35°29' E 139°39'0 0.0
2017-Dec-04 10:00N 35°29' E 139°39'0 0.0
2017-Dec-04 09:30N 35°29' E 139°39'0 0.0
2017-Dec-04 09:00N 35°29' E 139°39'0 0.0
2017-Dec-04 08:31N 35°29' E 139°39'0 0.0
2017-Dec-04 08:00N 35°29' E 139°39'0 0.0
2017-Dec-04 07:30N 35°29' E 139°39'0 0.0
2017-Dec-04 07:00N 35°29' E 139°39'0 0.0
2017-Dec-04 06:30N 35°29' E 139°39'0 0.0
2017-Dec-04 06:00N 35°29' E 139°39'0 0.0
2017-Dec-04 05:31N 35°29' E 139°39'0 0.0
2017-Dec-04 05:00N 35°29' E 139°39'0 0.0
2017-Dec-04 04:31N 35°29' E 139°39'0 0.0
2017-Dec-04 04:00N 35°29' E 139°39'0 0.0
2017-Dec-04 03:31N 35°29' E 139°39'0 0.0
2017-Dec-04 03:00N 35°29' E 139°39'0 0.0
2017-Dec-04 02:30N 35°29' E 139°39'0 0.0
2017-Dec-04 02:00N 35°29' E 139°39'0 0.0
2017-Dec-04 01:30N 35°29' E 139°39'0 0.0
2017-Dec-04 01:00N 35°29' E 139°39'0 0.0
2017-Dec-04 00:30N 35°29' E 139°39'0 0.0
2017-Dec-04 00:01N 35°29' E 139°39'0 0.0
2017-Dec-03 23:30N 35°29' E 139°39'0 0.1
2017-Dec-03 23:01N 35°29' E 139°39'3 6.5
2017-Dec-03 22:30N 35°26' E 139°42'4 7.8
2017-Dec-03 22:00N 35°23' E 139°44'0 0.6
2017-Dec-03 21:28N 35°23' E 139°44'0 0.0
2017-Dec-03 20:58N 35°23' E 139°44'0 0.0
2017-Dec-03 20:28N 35°23' E 139°44'0 0.1
2017-Dec-03 19:59N 35°23' E 139°44'0 0.0
2017-Dec-03 19:29N 35°23' E 139°44'0 0.0
2017-Dec-03 18:59N 35°23' E 139°44'0 0.0
2017-Dec-03 18:29N 35°23' E 139°44'0 0.1
2017-Dec-03 17:59N 35°23' E 139°44'0 0.0
2017-Dec-03 17:29N 35°23' E 139°44'0 0.2
2017-Dec-03 16:59N 35°23' E 139°44'0 0.0
2017-Dec-03 16:29N 35°23' E 139°44'0 0.0
2017-Dec-03 15:59N 35°23' E 139°44'0 0.0
2017-Dec-03 15:29N 35°23' E 139°44'0 0.0
2017-Dec-03 14:59N 35°23' E 139°44'0 0.1
2017-Dec-03 14:29N 35°23' E 139°44'0 0.0
2017-Dec-03 13:59N 35°23' E 139°44'0 0.0
2017-Dec-03 13:29N 35°23' E 139°44'0 0.0
2017-Dec-03 12:59N 35°23' E 139°44'2 4.7
2017-Dec-03 12:30N 35°21' E 139°43'5 9.5
2017-Dec-03 12:00N 35°16' E 139°46'5 9.0
2017-Dec-03 11:30N 35°12' E 139°47'510.4
2017-Dec-03 11:00N 35°07' E 139°45'510.8
2017-Dec-03 10:30N 35°02' E 139°42'611.8
2017-Dec-03 09:58N 34°59' E 139°35'612.5
2017-Dec-03 09:28N 34°55' E 139°29'512.0
2017-Dec-03 09:00N 34°52' E 139°24'611.8
2017-Dec-03 08:30N 34°48' E 139°18'611.9
2017-Dec-03 08:00N 34°45' E 139°12'611.4
2017-Dec-03 07:30N 34°41' E 139°07'510.1
2017-Dec-03 07:00N 34°38' E 139°02'5 9.7
2017-Dec-03 06:30N 34°36' E 138°57'611.0
2017-Dec-03 06:00N 34°35' E 138°50'611.8
2017-Dec-03 05:30N 34°34' E 138°43'611.7
2017-Dec-03 04:58N 34°33' E 138°36'611.4
2017-Dec-03 04:28N 34°32' E 138°29'711.3
2017-Dec-03 03:51N 34°31' E 138°20'411.1
2017-Dec-03 03:29N 34°31' E 138°15'319 9.9
2017-Dec-01 19:16N 33°13' E 132°03'3 9.8
2017-Dec-01 18:56N 33°16' E 132°01'5 9.5
2017-Dec-01 18:22N 33°21' E 131°58'410.0
2017-Dec-01 17:59N 33°24' E 131°56'510.7
2017-Dec-01 17:29N 33°29' E 131°52'511.2
2017-Dec-01 17:00N 33°34' E 131°49'  

Dump ship's entire track history